<?xml version="1.0" encoding="UTF-8" standalone="no" ?>
<gpx xmlns="http://www.topografix.com/GPX/1/1" xmlns:xsi="http://www.w3.org/2001/XMLSchema-instance" xsi:schemaLocation="http://www.topografix.com/GPX/1/1 http://www.topografix.com/GPX/1/1/gpx.xsd" version="1.1" creator="VisuGPX - https://www.visugpx.com">
  <metadata>
    <name>Course à pied dans l'après-midi</name>
  </metadata>
  <trk>
    <name><![CDATA[Course à pied dans l'après-midi_1]]></name>
    <trkseg>
      <trkpt lat="48.71392" lon="7.1892">
        <ele>355.5</ele>
        <time>2024-02-25T13:25:08Z</time>
      </trkpt>
      <trkpt lat="48.71378" lon="7.18933">
        <ele>355.4</ele>
        <time>2024-02-25T13:25:15Z</time>
      </trkpt>
      <trkpt lat="48.71362" lon="7.18951">
        <ele>355.2</ele>
        <time>2024-02-25T13:25:23Z</time>
      </trkpt>
      <trkpt lat="48.71349" lon="7.1897">
        <ele>355</ele>
        <time>2024-02-25T13:25:30Z</time>
      </trkpt>
      <trkpt lat="48.71336" lon="7.18989">
        <ele>355.1</ele>
        <time>2024-02-25T13:25:37Z</time>
      </trkpt>
      <trkpt lat="48.7132" lon="7.19005">
        <ele>355.2</ele>
        <time>2024-02-25T13:25:45Z</time>
      </trkpt>
      <trkpt lat="48.71302" lon="7.19016">
        <ele>355.4</ele>
        <time>2024-02-25T13:25:53Z</time>
      </trkpt>
      <trkpt lat="48.71284" lon="7.19025">
        <ele>355.5</ele>
        <time>2024-02-25T13:26:02Z</time>
      </trkpt>
      <trkpt lat="48.71286" lon="7.19022">
        <ele>355.5</ele>
        <time>2024-02-25T13:26:05Z</time>
      </trkpt>
      <trkpt lat="48.71297" lon="7.19013">
        <ele>355.4</ele>
        <time>2024-02-25T13:26:13Z</time>
      </trkpt>
      <trkpt lat="48.71297" lon="7.19015">
        <ele>355.4</ele>
        <time>2024-02-25T13:26:15Z</time>
      </trkpt>
      <trkpt lat="48.71292" lon="7.19024">
        <ele>355.7</ele>
        <time>2024-02-25T13:26:20Z</time>
      </trkpt>
      <trkpt lat="48.71295" lon="7.19024">
        <ele>355.8</ele>
        <time>2024-02-25T13:26:23Z</time>
      </trkpt>
      <trkpt lat="48.71309" lon="7.19008">
        <ele>355.4</ele>
        <time>2024-02-25T13:26:34Z</time>
      </trkpt>
      <trkpt lat="48.71309" lon="7.19009">
        <ele>355.7</ele>
        <time>2024-02-25T13:26:36Z</time>
      </trkpt>
      <trkpt lat="48.71306" lon="7.19013">
        <ele>355.9</ele>
        <time>2024-02-25T13:27:28Z</time>
      </trkpt>
      <trkpt lat="48.71304" lon="7.19013">
        <ele>355.8</ele>
        <time>2024-02-25T13:27:29Z</time>
      </trkpt>
      <trkpt lat="48.71287" lon="7.19023">
        <ele>355.8</ele>
        <time>2024-02-25T13:27:36Z</time>
      </trkpt>
      <trkpt lat="48.71276" lon="7.19045">
        <ele>356.4</ele>
        <time>2024-02-25T13:27:43Z</time>
      </trkpt>
      <trkpt lat="48.71276" lon="7.19055">
        <ele>357.1</ele>
        <time>2024-02-25T13:27:46Z</time>
      </trkpt>
      <trkpt lat="48.71276" lon="7.19061">
        <ele>357.3</ele>
        <time>2024-02-25T13:27:48Z</time>
      </trkpt>
      <trkpt lat="48.71263" lon="7.19067">
        <ele>357</ele>
        <time>2024-02-25T13:27:55Z</time>
      </trkpt>
      <trkpt lat="48.71261" lon="7.19096">
        <ele>358.8</ele>
        <time>2024-02-25T13:28:04Z</time>
      </trkpt>
      <trkpt lat="48.71259" lon="7.19124">
        <ele>359.5</ele>
        <time>2024-02-25T13:28:12Z</time>
      </trkpt>
      <trkpt lat="48.71248" lon="7.19149">
        <ele>359.7</ele>
        <time>2024-02-25T13:28:20Z</time>
      </trkpt>
      <trkpt lat="48.71235" lon="7.19173">
        <ele>360.1</ele>
        <time>2024-02-25T13:28:28Z</time>
      </trkpt>
      <trkpt lat="48.71224" lon="7.19196">
        <ele>360</ele>
        <time>2024-02-25T13:28:36Z</time>
      </trkpt>
      <trkpt lat="48.71223" lon="7.19201">
        <ele>360</ele>
        <time>2024-02-25T13:28:38Z</time>
      </trkpt>
      <trkpt lat="48.71225" lon="7.19201">
        <ele>360.1</ele>
        <time>2024-02-25T13:28:40Z</time>
      </trkpt>
      <trkpt lat="48.71231" lon="7.19175">
        <ele>359.9</ele>
        <time>2024-02-25T13:28:46Z</time>
      </trkpt>
      <trkpt lat="48.71241" lon="7.19148">
        <ele>359.7</ele>
        <time>2024-02-25T13:28:52Z</time>
      </trkpt>
      <trkpt lat="48.71251" lon="7.19125">
        <ele>359.4</ele>
        <time>2024-02-25T13:28:58Z</time>
      </trkpt>
      <trkpt lat="48.71264" lon="7.19102">
        <ele>359.4</ele>
        <time>2024-02-25T13:29:05Z</time>
      </trkpt>
      <trkpt lat="48.71271" lon="7.19074">
        <ele>358.2</ele>
        <time>2024-02-25T13:29:12Z</time>
      </trkpt>
      <trkpt lat="48.71273" lon="7.19062">
        <ele>357.7</ele>
        <time>2024-02-25T13:29:15Z</time>
      </trkpt>
      <trkpt lat="48.71281" lon="7.19058">
        <ele>357.8</ele>
        <time>2024-02-25T13:30:39Z</time>
      </trkpt>
      <trkpt lat="48.71296" lon="7.19038">
        <ele>357.5</ele>
        <time>2024-02-25T13:30:46Z</time>
      </trkpt>
      <trkpt lat="48.71311" lon="7.19022">
        <ele>357.3</ele>
        <time>2024-02-25T13:30:52Z</time>
      </trkpt>
      <trkpt lat="48.71323" lon="7.19001">
        <ele>356.2</ele>
        <time>2024-02-25T13:30:58Z</time>
      </trkpt>
      <trkpt lat="48.71337" lon="7.18979">
        <ele>355.5</ele>
        <time>2024-02-25T13:31:05Z</time>
      </trkpt>
      <trkpt lat="48.71348" lon="7.18962">
        <ele>355</ele>
        <time>2024-02-25T13:31:12Z</time>
      </trkpt>
      <trkpt lat="48.71362" lon="7.18944">
        <ele>354.6</ele>
        <time>2024-02-25T13:31:21Z</time>
      </trkpt>
      <trkpt lat="48.71371" lon="7.18934">
        <ele>354.6</ele>
        <time>2024-02-25T13:31:26Z</time>
      </trkpt>
      <trkpt lat="48.71369" lon="7.18942">
        <ele>354.8</ele>
        <time>2024-02-25T13:33:41Z</time>
      </trkpt>
      <trkpt lat="48.71366" lon="7.18944">
        <ele>354.8</ele>
        <time>2024-02-25T13:33:43Z</time>
      </trkpt>
      <trkpt lat="48.71349" lon="7.18961">
        <ele>355.2</ele>
        <time>2024-02-25T13:33:51Z</time>
      </trkpt>
      <trkpt lat="48.71334" lon="7.18979">
        <ele>355.6</ele>
        <time>2024-02-25T13:33:56Z</time>
      </trkpt>
      <trkpt lat="48.71319" lon="7.18995">
        <ele>356.2</ele>
        <time>2024-02-25T13:34:02Z</time>
      </trkpt>
      <trkpt lat="48.713" lon="7.19007">
        <ele>356.2</ele>
        <time>2024-02-25T13:34:10Z</time>
      </trkpt>
      <trkpt lat="48.71284" lon="7.19021">
        <ele>356.8</ele>
        <time>2024-02-25T13:34:17Z</time>
      </trkpt>
      <trkpt lat="48.71266" lon="7.19022">
        <ele>356.3</ele>
        <time>2024-02-25T13:34:25Z</time>
      </trkpt>
      <trkpt lat="48.71253" lon="7.1902">
        <ele>355.5</ele>
        <time>2024-02-25T13:34:31Z</time>
      </trkpt>
      <trkpt lat="48.71261" lon="7.19044">
        <ele>357.1</ele>
        <time>2024-02-25T13:34:40Z</time>
      </trkpt>
      <trkpt lat="48.71279" lon="7.19048">
        <ele>357.9</ele>
        <time>2024-02-25T13:34:48Z</time>
      </trkpt>
      <trkpt lat="48.71295" lon="7.19029">
        <ele>357.5</ele>
        <time>2024-02-25T13:34:56Z</time>
      </trkpt>
      <trkpt lat="48.71311" lon="7.19009">
        <ele>357</ele>
        <time>2024-02-25T13:35:03Z</time>
      </trkpt>
      <trkpt lat="48.71325" lon="7.18988">
        <ele>356.1</ele>
        <time>2024-02-25T13:35:10Z</time>
      </trkpt>
      <trkpt lat="48.71329" lon="7.18984">
        <ele>356.1</ele>
        <time>2024-02-25T13:35:18Z</time>
      </trkpt>
      <trkpt lat="48.71313" lon="7.18999">
        <ele>356.4</ele>
        <time>2024-02-25T13:35:25Z</time>
      </trkpt>
      <trkpt lat="48.71296" lon="7.19018">
        <ele>357.2</ele>
        <time>2024-02-25T13:35:32Z</time>
      </trkpt>
      <trkpt lat="48.71279" lon="7.1903">
        <ele>357.4</ele>
        <time>2024-02-25T13:35:40Z</time>
      </trkpt>
      <trkpt lat="48.7126" lon="7.19037">
        <ele>357</ele>
        <time>2024-02-25T13:35:48Z</time>
      </trkpt>
      <trkpt lat="48.71241" lon="7.19031">
        <ele>355.9</ele>
        <time>2024-02-25T13:35:56Z</time>
      </trkpt>
      <trkpt lat="48.71225" lon="7.19017">
        <ele>353.8</ele>
        <time>2024-02-25T13:36:03Z</time>
      </trkpt>
      <trkpt lat="48.71211" lon="7.19014">
        <ele>352.2</ele>
        <time>2024-02-25T13:36:12Z</time>
      </trkpt>
      <trkpt lat="48.71211" lon="7.19017">
        <ele>352.6</ele>
        <time>2024-02-25T13:36:14Z</time>
      </trkpt>
      <trkpt lat="48.71206" lon="7.19026">
        <ele>353</ele>
        <time>2024-02-25T13:36:30Z</time>
      </trkpt>
      <trkpt lat="48.71194" lon="7.19047">
        <ele>352.8</ele>
        <time>2024-02-25T13:36:38Z</time>
      </trkpt>
      <trkpt lat="48.71183" lon="7.19071">
        <ele>353.3</ele>
        <time>2024-02-25T13:36:46Z</time>
      </trkpt>
      <trkpt lat="48.7117" lon="7.19091">
        <ele>354.3</ele>
        <time>2024-02-25T13:36:53Z</time>
      </trkpt>
      <trkpt lat="48.71155" lon="7.19109">
        <ele>355.3</ele>
        <time>2024-02-25T13:36:59Z</time>
      </trkpt>
      <trkpt lat="48.71142" lon="7.19119">
        <ele>355.1</ele>
        <time>2024-02-25T13:37:05Z</time>
      </trkpt>
      <trkpt lat="48.71132" lon="7.19143">
        <ele>356</ele>
        <time>2024-02-25T13:37:13Z</time>
      </trkpt>
      <trkpt lat="48.71126" lon="7.19169">
        <ele>356.9</ele>
        <time>2024-02-25T13:37:24Z</time>
      </trkpt>
      <trkpt lat="48.71112" lon="7.19188">
        <ele>356.4</ele>
        <time>2024-02-25T13:37:36Z</time>
      </trkpt>
      <trkpt lat="48.71111" lon="7.19191">
        <ele>356.6</ele>
        <time>2024-02-25T13:37:37Z</time>
      </trkpt>
      <trkpt lat="48.7111" lon="7.19198">
        <ele>357</ele>
        <time>2024-02-25T13:37:39Z</time>
      </trkpt>
      <trkpt lat="48.71112" lon="7.19224">
        <ele>356.9</ele>
        <time>2024-02-25T13:37:45Z</time>
      </trkpt>
      <trkpt lat="48.71127" lon="7.19245">
        <ele>357.2</ele>
        <time>2024-02-25T13:37:52Z</time>
      </trkpt>
      <trkpt lat="48.71138" lon="7.19264">
        <ele>357.9</ele>
        <time>2024-02-25T13:37:58Z</time>
      </trkpt>
      <trkpt lat="48.71141" lon="7.19267">
        <ele>358.1</ele>
        <time>2024-02-25T13:38:07Z</time>
      </trkpt>
      <trkpt lat="48.71125" lon="7.19251">
        <ele>357.1</ele>
        <time>2024-02-25T13:38:14Z</time>
      </trkpt>
      <trkpt lat="48.71111" lon="7.19232">
        <ele>356.6</ele>
        <time>2024-02-25T13:38:21Z</time>
      </trkpt>
      <trkpt lat="48.7111" lon="7.1923">
        <ele>356.9</ele>
        <time>2024-02-25T13:38:22Z</time>
      </trkpt>
      <trkpt lat="48.71109" lon="7.19202">
        <ele>357.1</ele>
        <time>2024-02-25T13:38:31Z</time>
      </trkpt>
      <trkpt lat="48.71124" lon="7.19185">
        <ele>358</ele>
        <time>2024-02-25T13:38:41Z</time>
      </trkpt>
      <trkpt lat="48.71138" lon="7.19164">
        <ele>357.7</ele>
        <time>2024-02-25T13:38:48Z</time>
      </trkpt>
      <trkpt lat="48.71152" lon="7.19141">
        <ele>357.4</ele>
        <time>2024-02-25T13:38:55Z</time>
      </trkpt>
      <trkpt lat="48.71165" lon="7.19117">
        <ele>356.8</ele>
        <time>2024-02-25T13:39:02Z</time>
      </trkpt>
      <trkpt lat="48.71179" lon="7.19096">
        <ele>355.7</ele>
        <time>2024-02-25T13:39:09Z</time>
      </trkpt>
      <trkpt lat="48.71194" lon="7.19076">
        <ele>355.2</ele>
        <time>2024-02-25T13:39:16Z</time>
      </trkpt>
      <trkpt lat="48.71206" lon="7.19056">
        <ele>355.6</ele>
        <time>2024-02-25T13:39:23Z</time>
      </trkpt>
      <trkpt lat="48.71221" lon="7.19041">
        <ele>356.1</ele>
        <time>2024-02-25T13:39:30Z</time>
      </trkpt>
      <trkpt lat="48.71239" lon="7.19044">
        <ele>357.5</ele>
        <time>2024-02-25T13:39:37Z</time>
      </trkpt>
      <trkpt lat="48.71257" lon="7.19051">
        <ele>358.6</ele>
        <time>2024-02-25T13:39:45Z</time>
      </trkpt>
      <trkpt lat="48.71263" lon="7.19051">
        <ele>358.9</ele>
        <time>2024-02-25T13:39:48Z</time>
      </trkpt>
      <trkpt lat="48.71276" lon="7.19029">
        <ele>358.3</ele>
        <time>2024-02-25T13:39:57Z</time>
      </trkpt>
      <trkpt lat="48.7129" lon="7.19017">
        <ele>358.3</ele>
        <time>2024-02-25T13:40:06Z</time>
      </trkpt>
      <trkpt lat="48.71274" lon="7.19031">
        <ele>358.5</ele>
        <time>2024-02-25T13:40:13Z</time>
      </trkpt>
      <trkpt lat="48.71266" lon="7.19056">
        <ele>359.3</ele>
        <time>2024-02-25T13:40:21Z</time>
      </trkpt>
      <trkpt lat="48.71261" lon="7.19083">
        <ele>360.7</ele>
        <time>2024-02-25T13:40:28Z</time>
      </trkpt>
      <trkpt lat="48.71254" lon="7.19109">
        <ele>361.7</ele>
        <time>2024-02-25T13:40:35Z</time>
      </trkpt>
      <trkpt lat="48.71248" lon="7.19139">
        <ele>362</ele>
        <time>2024-02-25T13:40:42Z</time>
      </trkpt>
      <trkpt lat="48.7124" lon="7.19167">
        <ele>362.6</ele>
        <time>2024-02-25T13:40:49Z</time>
      </trkpt>
      <trkpt lat="48.71233" lon="7.19194">
        <ele>363</ele>
        <time>2024-02-25T13:40:56Z</time>
      </trkpt>
      <trkpt lat="48.71232" lon="7.19221">
        <ele>363.2</ele>
        <time>2024-02-25T13:41:04Z</time>
      </trkpt>
      <trkpt lat="48.71243" lon="7.19243">
        <ele>363.8</ele>
        <time>2024-02-25T13:41:12Z</time>
      </trkpt>
      <trkpt lat="48.71258" lon="7.19261">
        <ele>364.4</ele>
        <time>2024-02-25T13:41:19Z</time>
      </trkpt>
      <trkpt lat="48.71273" lon="7.19278">
        <ele>365</ele>
        <time>2024-02-25T13:41:26Z</time>
      </trkpt>
      <trkpt lat="48.7129" lon="7.19296">
        <ele>366.1</ele>
        <time>2024-02-25T13:41:34Z</time>
      </trkpt>
      <trkpt lat="48.71306" lon="7.19315">
        <ele>367.2</ele>
        <time>2024-02-25T13:41:42Z</time>
      </trkpt>
      <trkpt lat="48.71321" lon="7.1933">
        <ele>368</ele>
        <time>2024-02-25T13:41:49Z</time>
      </trkpt>
      <trkpt lat="48.71336" lon="7.1935">
        <ele>369.2</ele>
        <time>2024-02-25T13:41:57Z</time>
      </trkpt>
      <trkpt lat="48.71346" lon="7.19372">
        <ele>370.7</ele>
        <time>2024-02-25T13:42:04Z</time>
      </trkpt>
      <trkpt lat="48.71353" lon="7.19401">
        <ele>371</ele>
        <time>2024-02-25T13:42:12Z</time>
      </trkpt>
      <trkpt lat="48.71353" lon="7.19412">
        <ele>371.3</ele>
        <time>2024-02-25T13:42:15Z</time>
      </trkpt>
      <trkpt lat="48.71358" lon="7.19418">
        <ele>372</ele>
        <time>2024-02-25T13:42:51Z</time>
      </trkpt>
      <trkpt lat="48.71369" lon="7.19445">
        <ele>373.6</ele>
        <time>2024-02-25T13:42:59Z</time>
      </trkpt>
      <trkpt lat="48.71376" lon="7.19473">
        <ele>374.6</ele>
        <time>2024-02-25T13:43:06Z</time>
      </trkpt>
      <trkpt lat="48.71383" lon="7.19499">
        <ele>375.2</ele>
        <time>2024-02-25T13:43:13Z</time>
      </trkpt>
      <trkpt lat="48.71391" lon="7.19528">
        <ele>376</ele>
        <time>2024-02-25T13:43:21Z</time>
      </trkpt>
      <trkpt lat="48.71398" lon="7.19553">
        <ele>376.3</ele>
        <time>2024-02-25T13:43:28Z</time>
      </trkpt>
      <trkpt lat="48.71401" lon="7.19583">
        <ele>376.5</ele>
        <time>2024-02-25T13:43:36Z</time>
      </trkpt>
      <trkpt lat="48.71402" lon="7.1961">
        <ele>376.4</ele>
        <time>2024-02-25T13:43:43Z</time>
      </trkpt>
      <trkpt lat="48.71401" lon="7.19638">
        <ele>376.4</ele>
        <time>2024-02-25T13:43:50Z</time>
      </trkpt>
      <trkpt lat="48.71404" lon="7.19669">
        <ele>376.8</ele>
        <time>2024-02-25T13:43:58Z</time>
      </trkpt>
      <trkpt lat="48.71406" lon="7.19698">
        <ele>376.7</ele>
        <time>2024-02-25T13:44:05Z</time>
      </trkpt>
      <trkpt lat="48.71406" lon="7.19726">
        <ele>376.1</ele>
        <time>2024-02-25T13:44:11Z</time>
      </trkpt>
      <trkpt lat="48.71407" lon="7.19754">
        <ele>375.4</ele>
        <time>2024-02-25T13:44:18Z</time>
      </trkpt>
      <trkpt lat="48.71398" lon="7.19779">
        <ele>374.7</ele>
        <time>2024-02-25T13:44:25Z</time>
      </trkpt>
      <trkpt lat="48.71392" lon="7.19805">
        <ele>373.9</ele>
        <time>2024-02-25T13:44:32Z</time>
      </trkpt>
      <trkpt lat="48.71387" lon="7.19818">
        <ele>373.4</ele>
        <time>2024-02-25T13:44:39Z</time>
      </trkpt>
      <trkpt lat="48.71392" lon="7.19791">
        <ele>372.6</ele>
        <time>2024-02-25T13:44:46Z</time>
      </trkpt>
      <trkpt lat="48.71398" lon="7.19762">
        <ele>374.2</ele>
        <time>2024-02-25T13:44:53Z</time>
      </trkpt>
      <trkpt lat="48.71407" lon="7.19735">
        <ele>375.6</ele>
        <time>2024-02-25T13:44:59Z</time>
      </trkpt>
      <trkpt lat="48.71419" lon="7.19714">
        <ele>376.7</ele>
        <time>2024-02-25T13:45:05Z</time>
      </trkpt>
      <trkpt lat="48.71431" lon="7.1969">
        <ele>377.9</ele>
        <time>2024-02-25T13:45:12Z</time>
      </trkpt>
      <trkpt lat="48.71435" lon="7.19663">
        <ele>378.3</ele>
        <time>2024-02-25T13:45:19Z</time>
      </trkpt>
      <trkpt lat="48.71426" lon="7.19635">
        <ele>378</ele>
        <time>2024-02-25T13:45:26Z</time>
      </trkpt>
      <trkpt lat="48.71415" lon="7.1961">
        <ele>376.8</ele>
        <time>2024-02-25T13:45:32Z</time>
      </trkpt>
      <trkpt lat="48.71404" lon="7.19585">
        <ele>376.1</ele>
        <time>2024-02-25T13:45:38Z</time>
      </trkpt>
      <trkpt lat="48.71396" lon="7.19557">
        <ele>375.8</ele>
        <time>2024-02-25T13:45:44Z</time>
      </trkpt>
      <trkpt lat="48.7139" lon="7.19529">
        <ele>375.5</ele>
        <time>2024-02-25T13:45:50Z</time>
      </trkpt>
      <trkpt lat="48.71383" lon="7.19503">
        <ele>374.9</ele>
        <time>2024-02-25T13:45:56Z</time>
      </trkpt>
      <trkpt lat="48.71375" lon="7.19475">
        <ele>374.1</ele>
        <time>2024-02-25T13:46:02Z</time>
      </trkpt>
      <trkpt lat="48.71366" lon="7.19445">
        <ele>373.2</ele>
        <time>2024-02-25T13:46:08Z</time>
      </trkpt>
      <trkpt lat="48.71357" lon="7.19418">
        <ele>371.8</ele>
        <time>2024-02-25T13:46:14Z</time>
      </trkpt>
      <trkpt lat="48.7135" lon="7.19391">
        <ele>370.8</ele>
        <time>2024-02-25T13:46:20Z</time>
      </trkpt>
      <trkpt lat="48.71344" lon="7.19363">
        <ele>370.4</ele>
        <time>2024-02-25T13:46:26Z</time>
      </trkpt>
      <trkpt lat="48.71336" lon="7.19338">
        <ele>369.2</ele>
        <time>2024-02-25T13:46:32Z</time>
      </trkpt>
      <trkpt lat="48.7133" lon="7.19311">
        <ele>368.7</ele>
        <time>2024-02-25T13:46:38Z</time>
      </trkpt>
      <trkpt lat="48.71325" lon="7.19282">
        <ele>368.1</ele>
        <time>2024-02-25T13:46:44Z</time>
      </trkpt>
      <trkpt lat="48.7132" lon="7.19255">
        <ele>367.5</ele>
        <time>2024-02-25T13:46:50Z</time>
      </trkpt>
      <trkpt lat="48.71314" lon="7.19228">
        <ele>366.9</ele>
        <time>2024-02-25T13:46:56Z</time>
      </trkpt>
      <trkpt lat="48.71309" lon="7.19199">
        <ele>367</ele>
        <time>2024-02-25T13:47:02Z</time>
      </trkpt>
      <trkpt lat="48.71306" lon="7.19172">
        <ele>366.9</ele>
        <time>2024-02-25T13:47:08Z</time>
      </trkpt>
      <trkpt lat="48.713" lon="7.19144">
        <ele>366.2</ele>
        <time>2024-02-25T13:47:15Z</time>
      </trkpt>
      <trkpt lat="48.71289" lon="7.19119">
        <ele>364.5</ele>
        <time>2024-02-25T13:47:22Z</time>
      </trkpt>
      <trkpt lat="48.71277" lon="7.19095">
        <ele>362.7</ele>
        <time>2024-02-25T13:47:29Z</time>
      </trkpt>
      <trkpt lat="48.71272" lon="7.19075">
        <ele>361.5</ele>
        <time>2024-02-25T13:47:35Z</time>
      </trkpt>
      <trkpt lat="48.71282" lon="7.19048">
        <ele>355.5</ele>
        <time>2024-02-25T13:47:41Z</time>
      </trkpt>
      <trkpt lat="48.71297" lon="7.1903">
        <ele>355.5</ele>
        <time>2024-02-25T13:47:47Z</time>
      </trkpt>
      <trkpt lat="48.71314" lon="7.19015">
        <ele>355.3</ele>
        <time>2024-02-25T13:47:53Z</time>
      </trkpt>
      <trkpt lat="48.71329" lon="7.18999">
        <ele>355.1</ele>
        <time>2024-02-25T13:47:59Z</time>
      </trkpt>
      <trkpt lat="48.71342" lon="7.18976">
        <ele>355.1</ele>
        <time>2024-02-25T13:48:05Z</time>
      </trkpt>
      <trkpt lat="48.71354" lon="7.18952">
        <ele>355.1</ele>
        <time>2024-02-25T13:48:12Z</time>
      </trkpt>
      <trkpt lat="48.7137" lon="7.18935">
        <ele>355.3</ele>
        <time>2024-02-25T13:48:19Z</time>
      </trkpt>
      <trkpt lat="48.71387" lon="7.18924">
        <ele>355.5</ele>
        <time>2024-02-25T13:48:27Z</time>
      </trkpt>
      <trkpt lat="48.71388" lon="7.18923">
        <ele>355.5</ele>
        <time>2024-02-25T13:48:28Z</time>
      </trkpt>
      <trkpt lat="48.71376" lon="7.1894">
        <ele>355.3</ele>
        <time>2024-02-25T13:53:52Z</time>
      </trkpt>
      <trkpt lat="48.71371" lon="7.18945">
        <ele>355.3</ele>
        <time>2024-02-25T13:53:54Z</time>
      </trkpt>
      <trkpt lat="48.71364" lon="7.1895">
        <ele>355.2</ele>
        <time>2024-02-25T13:53:57Z</time>
      </trkpt>
      <trkpt lat="48.71355" lon="7.18952">
        <ele>355.1</ele>
        <time>2024-02-25T13:54:00Z</time>
      </trkpt>
      <trkpt lat="48.71341" lon="7.18973">
        <ele>355</ele>
        <time>2024-02-25T13:54:06Z</time>
      </trkpt>
      <trkpt lat="48.71327" lon="7.18989">
        <ele>355.1</ele>
        <time>2024-02-25T13:54:11Z</time>
      </trkpt>
      <trkpt lat="48.71309" lon="7.19003">
        <ele>355.2</ele>
        <time>2024-02-25T13:54:17Z</time>
      </trkpt>
      <trkpt lat="48.71291" lon="7.19018">
        <ele>355.4</ele>
        <time>2024-02-25T13:54:23Z</time>
      </trkpt>
      <trkpt lat="48.71274" lon="7.19027">
        <ele>355.5</ele>
        <time>2024-02-25T13:54:29Z</time>
      </trkpt>
      <trkpt lat="48.71255" lon="7.19017">
        <ele>355.5</ele>
        <time>2024-02-25T13:54:35Z</time>
      </trkpt>
      <trkpt lat="48.71239" lon="7.19003">
        <ele>355.6</ele>
        <time>2024-02-25T13:54:41Z</time>
      </trkpt>
      <trkpt lat="48.71231" lon="7.19001">
        <ele>355.7</ele>
        <time>2024-02-25T13:54:44Z</time>
      </trkpt>
      <trkpt lat="48.71228" lon="7.19028">
        <ele>356.7</ele>
        <time>2024-02-25T13:54:52Z</time>
      </trkpt>
      <trkpt lat="48.71244" lon="7.19043">
        <ele>358.3</ele>
        <time>2024-02-25T13:54:59Z</time>
      </trkpt>
      <trkpt lat="48.71261" lon="7.19052">
        <ele>359.8</ele>
        <time>2024-02-25T13:55:06Z</time>
      </trkpt>
      <trkpt lat="48.71264" lon="7.19046">
        <ele>359.6</ele>
        <time>2024-02-25T13:55:08Z</time>
      </trkpt>
      <trkpt lat="48.71261" lon="7.19014">
        <ele>357.7</ele>
        <time>2024-02-25T13:55:14Z</time>
      </trkpt>
      <trkpt lat="48.71252" lon="7.18995">
        <ele>356.2</ele>
        <time>2024-02-25T13:55:19Z</time>
      </trkpt>
      <trkpt lat="48.71254" lon="7.19006">
        <ele>355.5</ele>
        <time>2024-02-25T13:56:11Z</time>
      </trkpt>
      <trkpt lat="48.71272" lon="7.1902">
        <ele>355.5</ele>
        <time>2024-02-25T13:56:23Z</time>
      </trkpt>
      <trkpt lat="48.7129" lon="7.19006">
        <ele>355.5</ele>
        <time>2024-02-25T13:56:31Z</time>
      </trkpt>
      <trkpt lat="48.71308" lon="7.18994">
        <ele>355.3</ele>
        <time>2024-02-25T13:56:37Z</time>
      </trkpt>
      <trkpt lat="48.71309" lon="7.18996">
        <ele>355.3</ele>
        <time>2024-02-25T13:56:38Z</time>
      </trkpt>
      <trkpt lat="48.71306" lon="7.19003">
        <ele>355.2</ele>
        <time>2024-02-25T13:57:46Z</time>
      </trkpt>
      <trkpt lat="48.71322" lon="7.18989">
        <ele>355.1</ele>
        <time>2024-02-25T13:57:52Z</time>
      </trkpt>
      <trkpt lat="48.7134" lon="7.18971">
        <ele>355</ele>
        <time>2024-02-25T13:57:57Z</time>
      </trkpt>
      <trkpt lat="48.71343" lon="7.18968">
        <ele>355</ele>
        <time>2024-02-25T13:57:58Z</time>
      </trkpt>
      <trkpt lat="48.71357" lon="7.18947">
        <ele>355.1</ele>
        <time>2024-02-25T13:58:04Z</time>
      </trkpt>
      <trkpt lat="48.71372" lon="7.18928">
        <ele>355.3</ele>
        <time>2024-02-25T13:58:10Z</time>
      </trkpt>
      <trkpt lat="48.71387" lon="7.18914">
        <ele>355.5</ele>
        <time>2024-02-25T13:58:17Z</time>
      </trkpt>
      <trkpt lat="48.71388" lon="7.18912">
        <ele>355.5</ele>
        <time>2024-02-25T13:58:18Z</time>
      </trkpt>
      <trkpt lat="48.71386" lon="7.18912">
        <ele>355.5</ele>
        <time>2024-02-25T13:58:20Z</time>
      </trkpt>
      <trkpt lat="48.71373" lon="7.1893">
        <ele>355.3</ele>
        <time>2024-02-25T13:58:27Z</time>
      </trkpt>
      <trkpt lat="48.71358" lon="7.18948">
        <ele>355.1</ele>
        <time>2024-02-25T13:58:34Z</time>
      </trkpt>
      <trkpt lat="48.71343" lon="7.18967">
        <ele>355.1</ele>
        <time>2024-02-25T13:58:44Z</time>
      </trkpt>
      <trkpt lat="48.71327" lon="7.18984">
        <ele>355.1</ele>
        <time>2024-02-25T13:58:49Z</time>
      </trkpt>
      <trkpt lat="48.71315" lon="7.18996">
        <ele>355.2</ele>
        <time>2024-02-25T13:59:00Z</time>
      </trkpt>
      <trkpt lat="48.71332" lon="7.18983">
        <ele>355.1</ele>
        <time>2024-02-25T13:59:08Z</time>
      </trkpt>
      <trkpt lat="48.71348" lon="7.18963">
        <ele>355.1</ele>
        <time>2024-02-25T13:59:13Z</time>
      </trkpt>
      <trkpt lat="48.71354" lon="7.18956">
        <ele>355.1</ele>
        <time>2024-02-25T13:59:16Z</time>
      </trkpt>
      <trkpt lat="48.71356" lon="7.18951">
        <ele>355</ele>
        <time>2024-02-25T13:59:18Z</time>
      </trkpt>
      <trkpt lat="48.71372" lon="7.18931">
        <ele>355.1</ele>
        <time>2024-02-25T13:59:28Z</time>
      </trkpt>
      <trkpt lat="48.71379" lon="7.18921">
        <ele>355.1</ele>
        <time>2024-02-25T13:59:34Z</time>
      </trkpt>
      <trkpt lat="48.71362" lon="7.18938">
        <ele>355.2</ele>
        <time>2024-02-25T13:59:42Z</time>
      </trkpt>
      <trkpt lat="48.7135" lon="7.18958">
        <ele>355.3</ele>
        <time>2024-02-25T13:59:48Z</time>
      </trkpt>
      <trkpt lat="48.7135" lon="7.18959">
        <ele>355.3</ele>
        <time>2024-02-25T13:59:50Z</time>
      </trkpt>
      <trkpt lat="48.71353" lon="7.18953">
        <ele>355.3</ele>
        <time>2024-02-25T13:59:53Z</time>
      </trkpt>
      <trkpt lat="48.7137" lon="7.18935">
        <ele>355.4</ele>
        <time>2024-02-25T14:00:00Z</time>
      </trkpt>
      <trkpt lat="48.71386" lon="7.18917">
        <ele>355.5</ele>
        <time>2024-02-25T14:00:07Z</time>
      </trkpt>
      <trkpt lat="48.71393" lon="7.18914">
        <ele>355.6</ele>
        <time>2024-02-25T14:00:10Z</time>
      </trkpt>
      <trkpt lat="48.71395" lon="7.18916">
        <ele>355.6</ele>
        <time>2024-02-25T14:00:12Z</time>
      </trkpt>
      <trkpt lat="48.71395" lon="7.18922">
        <ele>355.5</ele>
        <time>2024-02-25T14:00:15Z</time>
      </trkpt>
      <trkpt lat="48.71393" lon="7.18924">
        <ele>355.5</ele>
        <time>2024-02-25T14:00:17Z</time>
      </trkpt>
      <trkpt lat="48.71377" lon="7.18938">
        <ele>355.4</ele>
        <time>2024-02-25T14:00:27Z</time>
      </trkpt>
      <trkpt lat="48.71359" lon="7.18951">
        <ele>355.2</ele>
        <time>2024-02-25T14:00:39Z</time>
      </trkpt>
      <trkpt lat="48.71353" lon="7.18956">
        <ele>355.1</ele>
        <time>2024-02-25T14:00:45Z</time>
      </trkpt>
      <trkpt lat="48.71352" lon="7.18959">
        <ele>355.1</ele>
        <time>2024-02-25T14:00:47Z</time>
      </trkpt>
      <trkpt lat="48.71336" lon="7.18977">
        <ele>355</ele>
        <time>2024-02-25T14:00:55Z</time>
      </trkpt>
      <trkpt lat="48.71319" lon="7.18992">
        <ele>355.1</ele>
        <time>2024-02-25T14:01:01Z</time>
      </trkpt>
      <trkpt lat="48.71301" lon="7.19008">
        <ele>355.1</ele>
        <time>2024-02-25T14:01:07Z</time>
      </trkpt>
      <trkpt lat="48.71283" lon="7.19023">
        <ele>355.3</ele>
        <time>2024-02-25T14:01:14Z</time>
      </trkpt>
      <trkpt lat="48.71275" lon="7.1903">
        <ele>355.4</ele>
        <time>2024-02-25T14:01:22Z</time>
      </trkpt>
      <trkpt lat="48.7129" lon="7.19013">
        <ele>355.5</ele>
        <time>2024-02-25T14:01:30Z</time>
      </trkpt>
      <trkpt lat="48.71305" lon="7.18996">
        <ele>355.3</ele>
        <time>2024-02-25T14:01:36Z</time>
      </trkpt>
      <trkpt lat="48.71325" lon="7.18983">
        <ele>355.1</ele>
        <time>2024-02-25T14:01:42Z</time>
      </trkpt>
      <trkpt lat="48.71341" lon="7.18967">
        <ele>355.1</ele>
        <time>2024-02-25T14:01:47Z</time>
      </trkpt>
      <trkpt lat="48.71355" lon="7.18948">
        <ele>355.1</ele>
        <time>2024-02-25T14:01:54Z</time>
      </trkpt>
      <trkpt lat="48.71364" lon="7.18938">
        <ele>355.2</ele>
        <time>2024-02-25T14:02:00Z</time>
      </trkpt>
      <trkpt lat="48.71389" lon="7.18918">
        <ele>355.5</ele>
        <time>2024-02-25T14:04:10Z</time>
      </trkpt>
      <trkpt lat="48.71372" lon="7.18931">
        <ele>355.3</ele>
        <time>2024-02-25T14:04:17Z</time>
      </trkpt>
      <trkpt lat="48.71357" lon="7.18952">
        <ele>355.1</ele>
        <time>2024-02-25T14:04:24Z</time>
      </trkpt>
      <trkpt lat="48.71354" lon="7.18965">
        <ele>355.1</ele>
        <time>2024-02-25T14:04:29Z</time>
      </trkpt>
      <trkpt lat="48.71356" lon="7.18965">
        <ele>355</ele>
        <time>2024-02-25T14:04:33Z</time>
      </trkpt>
      <trkpt lat="48.7135" lon="7.18964">
        <ele>355</ele>
        <time>2024-02-25T14:04:37Z</time>
      </trkpt>
      <trkpt lat="48.71333" lon="7.18977">
        <ele>355.1</ele>
        <time>2024-02-25T14:04:43Z</time>
      </trkpt>
      <trkpt lat="48.71316" lon="7.18992">
        <ele>355.2</ele>
        <time>2024-02-25T14:04:48Z</time>
      </trkpt>
      <trkpt lat="48.71297" lon="7.19008">
        <ele>355.5</ele>
        <time>2024-02-25T14:04:53Z</time>
      </trkpt>
      <trkpt lat="48.71287" lon="7.19018">
        <ele>355.5</ele>
        <time>2024-02-25T14:04:56Z</time>
      </trkpt>
      <trkpt lat="48.71288" lon="7.19017">
        <ele>355.5</ele>
        <time>2024-02-25T14:04:59Z</time>
      </trkpt>
      <trkpt lat="48.71303" lon="7.18998">
        <ele>355.4</ele>
        <time>2024-02-25T14:05:06Z</time>
      </trkpt>
      <trkpt lat="48.7132" lon="7.18983">
        <ele>355.1</ele>
        <time>2024-02-25T14:05:14Z</time>
      </trkpt>
      <trkpt lat="48.71337" lon="7.18968">
        <ele>355.1</ele>
        <time>2024-02-25T14:05:21Z</time>
      </trkpt>
      <trkpt lat="48.71351" lon="7.1895">
        <ele>355.1</ele>
        <time>2024-02-25T14:05:29Z</time>
      </trkpt>
      <trkpt lat="48.71365" lon="7.18931">
        <ele>355.2</ele>
        <time>2024-02-25T14:05:37Z</time>
      </trkpt>
      <trkpt lat="48.71379" lon="7.18924">
        <ele>355.4</ele>
        <time>2024-02-25T14:05:46Z</time>
      </trkpt>
      <trkpt lat="48.71384" lon="7.18926">
        <ele>355.4</ele>
        <time>2024-02-25T14:05:49Z</time>
      </trkpt>
      <trkpt lat="48.71385" lon="7.18923">
        <ele>355.5</ele>
        <time>2024-02-25T14:05:51Z</time>
      </trkpt>
      <trkpt lat="48.71381" lon="7.18921">
        <ele>355.4</ele>
        <time>2024-02-25T14:05:54Z</time>
      </trkpt>
      <trkpt lat="48.71364" lon="7.18941">
        <ele>355.2</ele>
        <time>2024-02-25T14:06:02Z</time>
      </trkpt>
      <trkpt lat="48.71347" lon="7.1896">
        <ele>355</ele>
        <time>2024-02-25T14:06:08Z</time>
      </trkpt>
      <trkpt lat="48.7133" lon="7.18979">
        <ele>355.1</ele>
        <time>2024-02-25T14:06:13Z</time>
      </trkpt>
      <trkpt lat="48.71331" lon="7.18978">
        <ele>355.1</ele>
        <time>2024-02-25T14:06:16Z</time>
      </trkpt>
      <trkpt lat="48.71346" lon="7.18961">
        <ele>355</ele>
        <time>2024-02-25T14:06:20Z</time>
      </trkpt>
      <trkpt lat="48.7135" lon="7.18957">
        <ele>355</ele>
        <time>2024-02-25T14:06:21Z</time>
      </trkpt>
      <trkpt lat="48.71363" lon="7.18938">
        <ele>355.1</ele>
        <time>2024-02-25T14:06:25Z</time>
      </trkpt>
      <trkpt lat="48.71369" lon="7.18932">
        <ele>355.1</ele>
        <time>2024-02-25T14:06:27Z</time>
      </trkpt>
      <trkpt lat="48.71374" lon="7.1893">
        <ele>355.1</ele>
        <time>2024-02-25T14:06:29Z</time>
      </trkpt>
      <trkpt lat="48.71383" lon="7.18931">
        <ele>355.1</ele>
        <time>2024-02-25T14:06:35Z</time>
      </trkpt>
      <trkpt lat="48.71383" lon="7.18932">
        <ele>355.1</ele>
        <time>2024-02-25T14:06:36Z</time>
      </trkpt>
      <trkpt lat="48.71369" lon="7.18936">
        <ele>355.2</ele>
        <time>2024-02-25T14:06:53Z</time>
      </trkpt>
      <trkpt lat="48.71357" lon="7.18948">
        <ele>355.2</ele>
        <time>2024-02-25T14:07:00Z</time>
      </trkpt>
      <trkpt lat="48.71362" lon="7.18947">
        <ele>355.2</ele>
        <time>2024-02-25T14:07:30Z</time>
      </trkpt>
      <trkpt lat="48.71364" lon="7.18946">
        <ele>355.2</ele>
        <time>2024-02-25T14:07:31Z</time>
      </trkpt>
      <trkpt lat="48.71372" lon="7.18936">
        <ele>355.3</ele>
        <time>2024-02-25T14:07:37Z</time>
      </trkpt>
    </trkseg>
  </trk>
</gpx>